createdAt,value
2023-09-26T00:01:45.985Z,89.38
2023-09-26T00:04:12.391Z,90.03
2023-09-26T00:06:38.973Z,90.39
2023-09-26T00:09:05.360Z,90.53
2023-09-26T00:11:31.699Z,91.06
2023-09-26T00:13:58.041Z,92.02
2023-09-26T00:16:24.528Z,91.00
2023-09-26T00:18:50.992Z,91.80
2023-09-26T00:21:17.363Z,92.33
2023-09-26T00:23:43.747Z,92.29
2023-09-26T00:26:10.071Z,91.62
2023-09-26T00:28:36.440Z,90.86
2023-09-26T00:31:02.882Z,91.24
2023-09-26T00:33:29.247Z,91.27
2023-09-26T00:35:55.598Z,91.44
2023-09-26T00:38:22.043Z,91.11
2023-09-26T00:40:48.392Z,91.18
2023-09-26T00:43:14.776Z,92.19
2023-09-26T00:45:41.278Z,93.28
2023-09-26T00:48:07.702Z,94.14
2023-09-26T00:50:34.083Z,93.59
2023-09-26T00:53:00.485Z,93.63
2023-09-26T00:55:26.874Z,92.99
2023-09-26T00:57:53.267Z,94.20
2023-09-26T01:00:19.646Z,94.90
2023-09-26T01:02:46.120Z,94.95
2023-09-26T01:05:12.562Z,95.34
2023-09-26T01:07:38.946Z,94.26
2023-09-26T01:10:05.375Z,95.82
2023-09-26T01:12:31.746Z,95.47
2023-09-26T01:14:58.141Z,95.02
2023-09-26T01:17:24.548Z,94.41
2023-09-26T01:19:50.945Z,94.26
2023-09-26T01:22:17.338Z,93.42
2023-09-26T01:24:43.738Z,94.42
2023-09-26T01:27:10.074Z,93.18
2023-09-26T01:29:36.448Z,92.66
2023-09-26T01:32:02.837Z,93.25
2023-09-26T01:34:29.316Z,94.42
2023-09-26T01:36:55.730Z,96.43
2023-09-26T01:39:22.150Z,96.15
2023-09-26T01:41:48.508Z,96.36
2023-09-26T01:44:14.892Z,97.23
2023-09-26T01:46:41.374Z,98.17
2023-09-26T01:49:07.805Z,99.11
2023-09-26T01:51:34.193Z,99.82
2023-09-26T01:54:00.537Z,100.00
2023-09-26T01:56:26.885Z,98.39
2023-09-26T01:58:53.275Z,98.89
2023-09-26T02:01:20.812Z,100.00
2023-09-26T02:03:47.311Z,100.00
2023-09-26T02:06:13.769Z,100.00
2023-09-26T02:08:40.119Z,100.00
2023-09-26T02:11:06.462Z,100.00
2023-09-26T02:13:32.903Z,100.00
2023-09-26T02:15:59.394Z,100.00
2023-09-26T02:18:25.823Z,100.00
2023-09-26T02:20:52.255Z,100.00
2023-09-26T02:23:18.624Z,100.00
2023-09-26T02:25:44.969Z,100.00
2023-09-26T02:28:11.354Z,100.00
2023-09-26T02:30:37.751Z,100.00
2023-09-26T02:33:04.129Z,100.00
2023-09-26T02:35:30.520Z,100.00
2023-09-26T02:37:56.855Z,100.00
2023-09-26T02:40:23.283Z,100.00
2023-09-26T02:42:49.732Z,100.00
2023-09-26T02:45:16.112Z,100.00
2023-09-26T02:47:42.517Z,100.00
2023-09-26T02:50:08.970Z,100.00
2023-09-26T02:52:35.320Z,100.00
2023-09-26T02:55:01.729Z,100.00
2023-09-26T02:57:28.142Z,100.00
2023-09-26T02:59:54.494Z,100.00
2023-09-26T03:02:20.847Z,100.00
2023-09-26T03:04:47.635Z,100.00
2023-09-26T03:07:14.057Z,100.00
2023-09-26T03:09:40.421Z,100.00
2023-09-26T03:12:06.812Z,100.00
2023-09-26T03:14:33.183Z,100.00
2023-09-26T03:16:59.738Z,100.00
2023-09-26T03:19:26.186Z,100.00
2023-09-26T03:21:52.588Z,100.00
2023-09-26T03:24:19.014Z,100.00
2023-09-26T03:26:45.394Z,100.00
2023-09-26T03:29:11.739Z,100.00
2023-09-26T03:31:38.215Z,100.00
2023-09-26T03:34:04.608Z,100.00
2023-09-26T03:36:30.960Z,100.00
2023-09-26T03:38:57.294Z,100.00
2023-09-26T03:41:23.666Z,100.00
2023-09-26T03:43:50.160Z,100.00
2023-09-26T03:46:16.785Z,100.00
2023-09-26T03:48:43.174Z,100.00
2023-09-26T03:51:09.523Z,100.00
2023-09-26T03:53:35.874Z,100.00
2023-09-26T03:56:02.303Z,100.00
2023-09-26T03:58:28.743Z,100.00
2023-09-26T04:00:55.190Z,100.00
2023-09-26T04:03:23.356Z,100.00
2023-09-26T04:05:49.862Z,100.00
2023-09-26T04:08:16.246Z,100.00
2023-09-26T04:10:42.647Z,100.00
2023-09-26T04:13:09.006Z,100.00
2023-09-26T04:15:35.394Z,100.00
2023-09-26T04:18:01.870Z,100.00
2023-09-26T04:20:37.058Z,100.00
2023-09-26T04:23:04.241Z,100.00
2023-09-26T04:25:30.668Z,100.00
2023-09-26T04:27:57.141Z,100.00
2023-09-26T04:30:23.591Z,100.00
2023-09-26T04:32:50.015Z,100.00
2023-09-26T04:35:16.390Z,100.00
2023-09-26T04:37:42.834Z,100.00
2023-09-26T04:40:09.220Z,100.00
2023-09-26T04:42:35.580Z,100.00
2023-09-26T04:45:02.025Z,100.00
2023-09-26T04:47:28.506Z,100.00
2023-09-26T04:49:57.426Z,100.00
2023-09-26T04:52:24.807Z,100.00
2023-09-26T04:54:51.241Z,100.00
2023-09-26T04:57:17.595Z,100.00
2023-09-26T04:59:43.960Z,100.00
2023-09-26T05:02:10.343Z,100.00
2023-09-26T05:04:36.741Z,100.00
2023-09-26T05:07:03.157Z,100.00
2023-09-26T05:09:29.550Z,100.00
2023-09-26T05:11:55.888Z,100.00
2023-09-26T05:14:22.277Z,100.00
2023-09-26T05:16:48.714Z,100.00
2023-09-26T05:19:15.209Z,100.00
2023-09-26T05:21:41.705Z,100.00
2023-09-26T05:24:08.061Z,100.00
2023-09-26T05:26:34.434Z,100.00
2023-09-26T05:29:00.805Z,100.00
2023-09-26T05:31:27.212Z,100.00
2023-09-26T05:33:53.892Z,100.00
2023-09-26T05:36:20.383Z,100.00
2023-09-26T05:38:46.722Z,100.00
2023-09-26T05:41:13.158Z,100.00
2023-09-26T05:43:39.525Z,100.00
2023-09-26T05:46:05.988Z,100.00
2023-09-26T05:48:32.394Z,100.00
2023-09-26T05:50:58.767Z,100.00
2023-09-26T05:53:25.129Z,100.00
2023-09-26T05:55:53.667Z,100.00
2023-09-26T05:58:22.047Z,100.00
2023-09-26T06:00:48.469Z,100.00
2023-09-26T06:03:14.881Z,100.00
2023-09-26T06:05:41.339Z,100.00
2023-09-26T06:08:07.750Z,100.00
2023-09-26T06:10:34.114Z,100.00
2023-09-26T06:13:00.539Z,100.00
2023-09-26T06:15:26.925Z,100.00
2023-09-26T06:17:53.309Z,100.00
2023-09-26T06:20:19.717Z,100.00
2023-09-26T06:22:46.063Z,100.00
2023-09-26T06:25:12.499Z,100.00
2023-09-26T06:27:38.921Z,100.00
2023-09-26T06:30:05.267Z,100.00
2023-09-26T06:32:31.700Z,100.00
2023-09-26T06:34:58.082Z,100.00
2023-09-26T06:37:24.505Z,100.00
2023-09-26T06:39:50.890Z,100.00
2023-09-26T06:42:17.290Z,100.00
2023-09-26T06:44:43.659Z,100.00
2023-09-26T06:47:10.042Z,100.00
2023-09-26T06:49:36.455Z,100.00
2023-09-26T06:52:02.850Z,100.00
2023-09-26T06:54:29.249Z,100.00
2023-09-26T06:56:55.632Z,100.00
2023-09-26T06:59:22.256Z,100.00
2023-09-26T07:01:48.668Z,100.00
2023-09-26T07:04:15.220Z,100.00
2023-09-26T07:06:41.920Z,100.00
2023-09-26T07:09:08.281Z,100.00
2023-09-26T07:11:34.647Z,100.00
2023-09-26T07:14:01.155Z,100.00
2023-09-26T07:16:27.853Z,100.00
2023-09-26T07:18:54.534Z,100.00
2023-09-26T07:21:21.101Z,100.00
2023-09-26T07:23:47.449Z,100.00
2023-09-26T07:26:15.687Z,100.00
2023-09-26T07:28:42.712Z,100.00
2023-09-26T07:31:09.273Z,100.00
2023-09-26T07:33:35.728Z,100.00
2023-09-26T07:36:02.101Z,100.00
2023-09-26T07:38:28.455Z,100.00
2023-09-26T07:40:54.856Z,100.00
2023-09-26T07:43:21.379Z,100.00
2023-09-26T07:45:47.900Z,100.00
2023-09-26T07:48:14.321Z,100.00
2023-09-26T07:50:40.675Z,100.00
2023-09-26T07:53:07.037Z,100.00
2023-09-26T07:55:33.414Z,100.00
2023-09-26T07:57:59.816Z,100.00
2023-09-26T08:00:26.198Z,100.00
2023-09-26T08:02:52.726Z,100.00
2023-09-26T08:05:19.189Z,100.00
2023-09-26T08:07:45.789Z,100.00
2023-09-26T08:10:12.237Z,100.00
2023-09-26T08:12:38.636Z,100.00
2023-09-26T08:15:04.985Z,100.00
2023-09-26T08:17:31.375Z,100.00
2023-09-26T08:19:57.831Z,100.00
2023-09-26T08:22:24.201Z,100.00
2023-09-26T08:24:50.720Z,100.00
2023-09-26T08:27:17.302Z,100.00
2023-09-26T08:29:43.685Z,100.00
2023-09-26T08:32:10.154Z,100.00
2023-09-26T08:34:36.561Z,100.00
2023-09-26T08:37:02.962Z,100.00
2023-09-26T08:39:29.337Z,98.64
2023-09-26T08:41:55.694Z,94.89
2023-09-26T08:44:22.027Z,95.35
2023-09-26T08:46:48.516Z,94.40
2023-09-26T08:49:14.980Z,96.14
2023-09-26T08:51:41.376Z,94.52
2023-09-26T08:54:09.036Z,89.04
2023-09-26T08:56:36.758Z,90.31
2023-09-26T08:59:04.203Z,89.18
2023-09-26T09:01:30.621Z,89.31
2023-09-26T09:03:57.157Z,86.30
2023-09-26T09:06:23.532Z,83.60
2023-09-26T09:08:50.164Z,81.70
2023-09-26T09:11:16.668Z,80.18
2023-09-26T09:13:43.030Z,79.49
2023-09-26T09:16:09.517Z,80.53
2023-09-26T09:18:35.882Z,82.07
2023-09-26T09:21:02.224Z,81.36
2023-09-26T09:25:54.908Z,78.13
2023-09-26T09:28:21.312Z,77.77
2023-09-26T09:30:47.749Z,75.63
2023-09-26T09:33:14.233Z,76.86
2023-09-26T09:35:40.626Z,74.72
2023-09-26T09:38:07.014Z,72.36
2023-09-26T09:40:33.385Z,69.63
2023-09-26T09:42:59.745Z,67.36
2023-09-26T09:45:27.129Z,64.27
2023-09-26T09:47:53.636Z,61.10
2023-09-26T09:50:19.983Z,59.73
2023-09-26T09:52:46.358Z,58.69
2023-09-26T09:55:12.738Z,60.35
2023-09-26T09:57:39.137Z,58.08
2023-09-26T10:00:05.536Z,56.30
2023-09-26T10:02:31.953Z,57.00
2023-09-26T10:04:58.423Z,55.41
2023-09-26T10:07:24.844Z,57.01
2023-09-26T10:09:51.237Z,59.29
2023-09-26T10:12:17.718Z,59.08
2023-09-26T10:14:44.283Z,62.16
2023-09-26T10:17:10.799Z,64.82
2023-09-26T10:19:54.566Z,63.42
2023-09-26T10:22:23.707Z,65.37
2023-09-26T10:24:50.079Z,62.26
2023-09-26T10:27:27.165Z,65.23
2023-09-26T10:29:54.860Z,59.00
2023-09-26T10:32:21.247Z,59.80
2023-09-26T10:37:33.937Z,60.53
2023-09-26T10:40:00.318Z,58.32
2023-09-26T10:43:07.950Z,60.91
2023-09-26T10:45:13.075Z,61.24
2023-09-26T10:47:39.487Z,62.52
2023-09-26T10:50:05.915Z,62.27
2023-09-26T10:52:32.330Z,60.61
2023-09-26T10:54:58.750Z,59.42
2023-09-26T10:57:25.122Z,57.71
2023-09-26T10:59:51.492Z,58.09
2023-09-26T11:02:17.867Z,58.95
2023-09-26T11:04:44.896Z,57.43
2023-09-26T11:07:11.574Z,59.14
2023-09-26T11:09:38.081Z,60.14
2023-09-26T11:12:04.443Z,61.65
2023-09-26T11:14:30.837Z,60.01
2023-09-26T11:16:57.703Z,57.79
2023-09-26T11:19:24.085Z,55.49
2023-09-26T11:21:50.450Z,57.35
2023-09-26T11:24:16.791Z,55.58
2023-09-26T11:26:43.130Z,56.06
2023-09-26T11:29:09.533Z,55.16
2023-09-26T11:31:35.993Z,58.47
2023-09-26T11:34:02.396Z,55.53
2023-09-26T11:36:28.754Z,57.31
2023-09-26T11:38:55.121Z,58.97
2023-09-26T11:41:26.666Z,58.16
2023-09-26T11:43:58.604Z,57.35
2023-09-26T11:46:24.996Z,56.65
2023-09-26T11:48:51.356Z,57.41
2023-09-26T11:51:17.736Z,57.42
2023-09-26T11:53:44.083Z,58.67
2023-09-26T11:56:10.413Z,58.65
2023-09-26T11:58:36.789Z,58.28
2023-09-26T12:01:03.164Z,59.33
2023-09-26T12:03:29.540Z,57.33
2023-09-26T12:05:56.021Z,55.96
2023-09-26T12:08:22.369Z,56.55
2023-09-26T12:10:48.716Z,55.87
2023-09-26T12:13:15.288Z,55.72
2023-09-26T12:15:41.670Z,54.96
2023-09-26T12:18:08.111Z,57.15
2023-09-26T12:20:34.602Z,56.16
2023-09-26T12:23:01.040Z,58.60
2023-09-26T12:25:27.477Z,60.13
2023-09-26T12:27:53.991Z,57.82
2023-09-26T12:30:20.336Z,55.25
2023-09-26T12:32:47.247Z,55.32
2023-09-26T12:35:13.670Z,56.17
2023-09-26T12:37:40.060Z,58.10
2023-09-26T12:40:06.409Z,56.33
2023-09-26T12:42:32.774Z,55.87
2023-09-26T12:44:59.120Z,57.81
2023-09-26T12:47:25.747Z,58.09
2023-09-26T12:49:52.290Z,58.58
2023-09-26T12:52:18.677Z,56.84
2023-09-26T12:54:45.024Z,57.08
2023-09-26T12:57:11.418Z,56.45
2023-09-26T12:59:38.040Z,56.84
2023-09-26T13:02:04.450Z,57.18
2023-09-26T13:04:30.909Z,57.72
2023-09-26T13:06:57.352Z,58.61
2023-09-26T13:09:23.722Z,59.62
2023-09-26T13:11:50.096Z,58.64
2023-09-26T13:14:16.519Z,58.58
2023-09-26T13:16:42.925Z,60.36
2023-09-26T13:19:09.361Z,59.77
2023-09-26T13:21:35.705Z,60.63
2023-09-26T13:24:02.179Z,57.72
2023-09-26T13:26:28.719Z,61.60
2023-09-26T13:28:55.910Z,61.58
2023-09-26T13:31:22.415Z,62.67
2023-09-26T13:33:48.815Z,59.53
2023-09-26T13:36:15.159Z,60.86
2023-09-26T13:38:41.519Z,62.87
2023-09-26T13:41:07.933Z,61.25
2023-09-26T13:43:34.536Z,60.46
2023-09-26T13:46:00.917Z,59.69
2023-09-26T13:48:27.293Z,60.89
2023-09-26T13:50:53.660Z,59.16
2023-09-26T13:53:20.011Z,62.02
2023-09-26T13:55:46.429Z,61.57
2023-09-26T13:58:12.794Z,60.48
2023-09-26T14:00:39.138Z,61.29
2023-09-26T14:03:05.655Z,61.95
2023-09-26T14:05:32.147Z,60.93
2023-09-26T14:07:58.637Z,62.74
2023-09-26T14:10:25.711Z,61.94
2023-09-26T14:12:52.177Z,62.76
2023-09-26T14:15:18.567Z,62.22
2023-09-26T14:17:44.972Z,63.23
2023-09-26T14:20:11.411Z,63.38
2023-09-26T14:22:37.824Z,64.77
2023-09-26T14:25:04.220Z,63.63
2023-09-26T14:27:30.568Z,64.95
2023-09-26T14:29:56.906Z,64.05
2023-09-26T14:32:23.447Z,64.24
2023-09-26T14:34:49.943Z,64.93
2023-09-26T14:37:16.389Z,65.08
2023-09-26T14:39:42.766Z,66.21
2023-09-26T14:42:09.126Z,65.90
2023-09-26T14:44:35.546Z,66.62
2023-09-26T14:47:02.042Z,66.70
2023-09-26T14:49:28.443Z,63.70
2023-09-26T14:51:54.791Z,66.20
2023-09-26T14:54:21.163Z,66.71
2023-09-26T14:56:47.688Z,65.92
2023-09-26T14:59:14.075Z,66.32
2023-09-26T15:01:40.532Z,67.72
2023-09-26T15:04:07.076Z,66.96
2023-09-26T15:06:33.712Z,66.08
2023-09-26T15:09:00.109Z,65.67
2023-09-26T15:11:26.544Z,66.09
2023-09-26T15:13:52.947Z,65.25
2023-09-26T15:16:19.387Z,64.67
2023-09-26T15:18:45.777Z,65.88
2023-09-26T15:21:12.108Z,65.48
2023-09-26T15:23:38.484Z,66.29
2023-09-26T15:26:04.907Z,67.39
2023-09-26T15:28:31.289Z,66.86
2023-09-26T15:30:57.693Z,66.58
2023-09-26T15:33:24.107Z,67.18
2023-09-26T15:35:50.658Z,68.59
2023-09-26T15:38:17.109Z,70.24
2023-09-26T15:40:43.582Z,69.03
2023-09-26T15:43:09.961Z,68.56
2023-09-26T15:45:36.352Z,68.44
2023-09-26T15:48:02.793Z,67.95
2023-09-26T15:50:29.257Z,68.84
2023-09-26T15:52:55.711Z,68.67
2023-09-26T15:55:22.072Z,68.24
2023-09-26T15:57:48.451Z,68.04
2023-09-26T16:00:14.821Z,68.71
2023-09-26T16:02:41.275Z,67.73
2023-09-26T16:05:07.748Z,66.34
2023-09-26T16:07:34.239Z,66.43
2023-09-26T16:10:00.598Z,67.07
2023-09-26T16:12:27.017Z,66.51
2023-09-26T16:14:53.410Z,66.12
2023-09-26T16:17:19.842Z,66.14
2023-09-26T16:19:46.285Z,67.11
2023-09-26T16:22:12.662Z,66.87
2023-09-26T16:24:39.017Z,68.17
2023-09-26T16:27:05.374Z,67.80
2023-09-26T16:29:32.019Z,68.25
2023-09-26T16:31:58.551Z,68.39
2023-09-26T16:34:24.987Z,67.90
2023-09-26T16:36:51.390Z,69.21
2023-09-26T16:39:17.759Z,68.43
2023-09-26T16:41:44.102Z,70.25
2023-09-26T16:44:11.019Z,70.47
2023-09-26T16:46:37.581Z,72.61
2023-09-26T16:49:04.184Z,74.78
2023-09-26T16:51:30.920Z,77.75
2023-09-26T16:53:57.291Z,80.77
2023-09-26T16:56:23.631Z,82.30
2023-09-26T16:58:50.041Z,84.05
2023-09-26T17:01:16.427Z,85.06
2023-09-26T17:03:42.764Z,86.07
2023-09-26T17:06:09.177Z,86.26
2023-09-26T17:08:35.594Z,87.08
2023-09-26T17:11:02.040Z,86.61
2023-09-26T17:13:28.460Z,84.50
2023-09-26T17:15:54.812Z,81.90
2023-09-26T17:18:21.192Z,80.80
2023-09-26T17:20:47.574Z,78.48
2023-09-26T17:23:13.917Z,78.49
2023-09-26T17:25:40.280Z,78.13
2023-09-26T17:28:06.680Z,77.95
2023-09-26T17:30:33.031Z,77.15
2023-09-26T17:32:59.422Z,76.52
2023-09-26T17:35:25.801Z,76.92
2023-09-26T17:37:52.195Z,75.39
2023-09-26T17:40:18.559Z,75.67
2023-09-26T17:42:44.940Z,76.12
2023-09-26T17:45:11.330Z,76.41
2023-09-26T17:47:40.223Z,74.72
2023-09-26T17:50:06.664Z,74.46
2023-09-26T17:52:33.087Z,73.39
2023-09-26T17:54:59.455Z,74.19
2023-09-26T17:57:25.872Z,74.13
2023-09-26T17:59:52.255Z,74.69
2023-09-26T18:02:18.615Z,73.70
2023-09-26T18:04:45.034Z,74.63
2023-09-26T18:07:11.411Z,73.97
2023-09-26T18:09:37.748Z,73.92
2023-09-26T18:12:04.120Z,74.39
2023-09-26T18:14:30.459Z,73.58
2023-09-26T18:16:56.837Z,74.29
2023-09-26T18:19:23.242Z,74.07
2023-09-26T18:21:49.584Z,74.19
2023-09-26T18:24:15.925Z,73.13
2023-09-26T18:26:42.344Z,72.85
2023-09-26T18:29:08.746Z,72.93
2023-09-26T18:31:35.127Z,72.93
2023-09-26T18:34:01.526Z,72.03
2023-09-26T18:36:27.892Z,72.81
2023-09-26T18:38:54.239Z,73.55
2023-09-26T18:41:22.022Z,72.69
2023-09-26T18:43:48.701Z,76.19
2023-09-26T18:46:15.143Z,77.27
2023-09-26T18:48:41.775Z,77.89
2023-09-26T18:51:08.152Z,78.99
2023-09-26T18:53:34.583Z,78.71
2023-09-26T18:56:01.048Z,79.81
2023-09-26T18:58:27.449Z,79.59
2023-09-26T19:00:53.797Z,80.12
2023-09-26T19:03:20.390Z,79.89
2023-09-26T19:05:47.007Z,80.15
2023-09-26T19:08:13.486Z,80.68
2023-09-26T19:10:39.967Z,81.09
2023-09-26T19:13:06.350Z,80.56
2023-09-26T19:15:32.754Z,81.31
2023-09-26T19:17:59.175Z,80.94
2023-09-26T19:20:25.562Z,81.11
2023-09-26T19:22:51.972Z,80.74
2023-09-26T19:25:18.353Z,80.50
2023-09-26T19:27:44.734Z,79.55
2023-09-26T19:30:11.085Z,80.33
2023-09-26T19:32:37.527Z,79.90
2023-09-26T19:35:03.970Z,79.67
2023-09-26T19:37:30.384Z,79.78
2023-09-26T19:39:56.775Z,79.46
2023-09-26T19:42:23.156Z,78.89
2023-09-26T19:44:49.515Z,78.34
2023-09-26T19:47:15.989Z,78.18
2023-09-26T19:49:42.416Z,78.29
2023-09-26T19:52:08.820Z,78.93
2023-09-26T19:54:35.218Z,78.13
2023-09-26T19:57:01.592Z,78.97
2023-09-26T19:59:28.019Z,79.15
2023-09-26T20:01:54.414Z,79.06
2023-09-26T20:04:20.852Z,78.43
2023-09-26T20:06:47.202Z,78.99
2023-09-26T20:09:13.600Z,78.86
2023-09-26T20:11:39.929Z,78.68
2023-09-26T20:14:06.376Z,78.55
2023-09-26T20:16:32.760Z,79.20
2023-09-26T20:18:59.140Z,77.89
2023-09-26T20:21:25.473Z,79.93
2023-09-26T20:23:51.850Z,79.87
2023-09-26T20:26:18.230Z,81.11
2023-09-26T20:28:46.234Z,80.70
2023-09-26T20:31:14.446Z,82.24
2023-09-26T20:33:40.802Z,82.54
2023-09-26T20:36:07.220Z,82.76
2023-09-26T20:38:33.646Z,83.79
2023-09-26T20:41:00.007Z,85.03
2023-09-26T20:43:26.356Z,84.13
2023-09-26T20:45:52.747Z,84.49
2023-09-26T20:48:19.112Z,84.79
2023-09-26T20:50:45.466Z,84.65
2023-09-26T20:53:11.902Z,84.42
2023-09-26T20:55:38.332Z,83.53
2023-09-26T20:58:04.694Z,83.31
2023-09-26T21:00:31.089Z,84.65
2023-09-26T21:02:57.469Z,83.67
2023-09-26T21:05:23.908Z,84.73
2023-09-26T21:07:50.368Z,86.02
2023-09-26T21:10:16.760Z,86.22
2023-09-26T21:12:43.157Z,85.97
2023-09-26T21:15:09.564Z,86.05
2023-09-26T21:17:35.957Z,85.61
2023-09-26T21:20:02.396Z,85.67
2023-09-26T21:22:28.841Z,85.01
2023-09-26T21:24:55.174Z,85.14
2023-09-26T21:27:21.535Z,85.81
2023-09-26T21:29:47.898Z,86.57
2023-09-26T21:32:14.359Z,87.31
2023-09-26T21:34:40.772Z,88.58
2023-09-26T21:37:07.219Z,87.99
2023-09-26T21:39:33.571Z,89.00
2023-09-26T21:41:59.927Z,88.88
2023-09-26T21:44:26.350Z,90.56
2023-09-26T21:46:52.714Z,91.21
2023-09-26T21:49:19.141Z,91.22
2023-09-26T21:51:45.537Z,91.45
2023-09-26T21:54:11.908Z,91.26
2023-09-26T21:56:38.265Z,91.58
2023-09-26T21:59:04.750Z,91.93
2023-09-26T22:01:31.167Z,91.65
2023-09-26T22:03:57.570Z,92.63
2023-09-26T22:06:24.001Z,91.60
2023-09-26T22:08:50.347Z,92.13
2023-09-26T22:11:16.782Z,92.25
2023-09-26T22:13:43.236Z,92.77
2023-09-26T22:16:09.653Z,92.36
2023-09-26T22:18:37.006Z,93.30
2023-09-26T22:21:03.379Z,92.69
2023-09-26T22:23:29.757Z,93.32
2023-09-26T22:25:56.216Z,93.38
2023-09-26T22:28:22.644Z,93.63
2023-09-26T22:30:48.987Z,94.36
2023-09-26T22:33:15.718Z,94.17
2023-09-26T22:35:42.127Z,93.46
2023-09-26T22:38:08.521Z,93.49
2023-09-26T22:40:44.799Z,93.77
2023-09-26T22:43:16.845Z,94.47
2023-09-26T22:45:43.247Z,94.64
2023-09-26T22:48:09.738Z,94.30
2023-09-26T22:50:36.146Z,95.15
2023-09-26T22:53:02.536Z,95.89
2023-09-26T22:55:28.963Z,95.82
2023-09-26T22:57:55.356Z,96.05
2023-09-26T23:00:21.694Z,96.53
2023-09-26T23:02:48.180Z,98.02
2023-09-26T23:05:14.646Z,98.34
2023-09-26T23:07:41.011Z,98.41
2023-09-26T23:10:07.365Z,99.45
2023-09-26T23:12:33.761Z,99.72
2023-09-26T23:15:00.196Z,98.65
2023-09-26T23:17:26.612Z,97.87
2023-09-26T23:19:53.126Z,98.25
2023-09-26T23:22:19.513Z,98.39
2023-09-26T23:24:45.860Z,98.62
2023-09-26T23:27:12.302Z,99.50
2023-09-26T23:29:38.641Z,100.00
2023-09-26T23:32:05.065Z,100.00
2023-09-26T23:34:31.497Z,100.00
2023-09-26T23:36:57.928Z,100.00
2023-09-26T23:39:24.269Z,100.00
2023-09-26T23:41:50.662Z,100.00
2023-09-26T23:44:17.095Z,100.00
2023-09-26T23:46:43.504Z,100.00
2023-09-26T23:49:09.902Z,100.00
2023-09-26T23:51:36.263Z,100.00
2023-09-26T23:54:02.624Z,100.00
2023-09-26T23:56:29.045Z,100.00
2023-09-26T23:58:55.621Z,100.00
